Fort Gratiot Township, Michigan
Current Conditions -  °F | °C
As of 6:56 AM on Saturday 25 Oct 2014 (Local Time) from KPHN Reporting Station
Haze Haze  
Wind Chill: 48°   Ceiling: 9500
Heat Index: 48°   Visibility: 4mi
Dew Point: 46°   Wind: 3mph
Humidity: 93%   Direction: 210°SSW
Pressure: 29.84"   Gusts: NA
Location:  43.0393°N, 82.4847°W
Report Text: KPHN 251056Z AUTO 21003KT 4SM BR OVC095 09/08 A2984 RMK AO2
Loading
Personal Weather Stations






























Interactive Weather Map
Tropical Storm Tracking
New forecast layout! Learn more

10-Day Weather Forecast

Advertisements
Track Severe Weather on mobile